Time;durP1;ratioP1;P1;durP2;ratioP2;P2;SDS_P1;SDS_P2;PMS_P1;PMS_P2;Temp;Humidity;BMP_temperature;BMP_pressure;BME280_temperature;BME280_humidity;BME280_pressure;Samples;Min_cycle;Max_cycle;Signal;HPM_P1;HPM_P2
2022/01/15 00:02:08;;;;;;;86.33;42.07;;;7.90;99.90;;;;;;5104821;23;20700;-96
2022/01/15 00:04:14;;;;;;;100.70;42.10;;;7.20;99.90;;;;;;5102282;23;20224;-94
2022/01/15 00:06:25;;;;;;;87.43;42.00;;;7.10;99.90;;;;;;5104509;23;20651;-94
2022/01/15 00:08:50;;;;;;;95.87;42.47;;;7.60;99.90;;;;;;5129844;23;20215;-94
2022/01/15 00:11:02;;;;;;;93.83;42.67;;;7.70;99.90;;;;;;5130939;23;20191;-95
2022/01/15 00:13:07;;;;;;;98.33;44.50;;;7.80;99.90;;;;;;5108405;23;20159;-93
2022/01/15 00:15:22;;;;;;;91.47;43.10;;;8.10;99.90;;;;;;5134724;23;20160;-95
2022/01/15 00:17:52;;;;;;;88.67;42.73;;;8.10;99.90;;;;;;5085070;23;20261;-95
2022/01/15 00:20:08;;;;;;;93.87;43.03;;;8.10;99.90;;;;;;5102487;23;20173;-95
2022/01/15 00:22:14;;;;;;;101.13;44.30;;;8.10;99.90;;;;;;5125898;23;20152;-95
2022/01/15 00:24:23;;;;;;;100.03;43.70;;;8.00;99.90;;;;;;5101033;23;20152;-95
2022/01/15 00:26:26;;;;;;;100.00;44.33;;;8.00;99.90;;;;;;5124194;23;20247;-94
2022/01/15 00:28:27;;;;;;;102.13;45.20;;;7.90;99.90;;;;;;5100909;23;20177;-93
2022/01/15 00:30:38;;;;;;;103.03;45.70;;;7.90;99.90;;;;;;5103105;23;20153;-94
2022/01/15 00:32:49;;;;;;;98.30;45.20;;;7.90;99.90;;;;;;5101941;23;20161;-95
2022/01/15 00:35:00;;;;;;;99.13;44.33;;;7.80;99.90;;;;;;5104813;23;20145;-94
2022/01/15 00:37:35;;;;;;;94.03;43.10;;;7.90;99.90;;;;;;5127136;23;20243;-95
2022/01/15 00:42:18;;;;;;;89.90;41.03;;;6.80;99.90;;;;;;5131690;23;20148;-94
2022/01/15 00:44:42;;;;;;;83.07;39.83;;;6.70;99.90;;;;;;5134918;23;20148;-94
2022/01/15 00:47:09;;;;;;;82.33;39.83;;;6.70;99.90;;;;;;5128510;23;20164;-95
2022/01/15 00:49:44;;;;;;;78.60;37.63;;;6.60;99.90;;;;;;5132813;23;20152;-95
2022/01/15 00:51:54;;;;;;;73.40;38.37;;;6.50;99.90;;;;;;5107106;23;20196;-95
2022/01/15 00:54:14;;;;;;;83.90;40.57;;;6.50;99.90;;;;;;5083016;23;20157;-95
2022/01/15 00:56:26;;;;;;;77.77;38.23;;;6.50;99.90;;;;;;5107061;23;20204;-95
2022/01/15 00:58:35;;;;;;;85.13;40.70;;;6.70;99.90;;;;;;5104271;23;20527;-95
2022/01/15 01:00:53;;;;;;;87.93;40.93;;;7.10;99.90;;;;;;5105736;23;20175;-95
2022/01/15 01:03:02;;;;;;;79.50;39.63;;;7.40;99.90;;;;;;5079344;23;20165;-95
2022/01/15 01:05:34;;;;;;;77.83;37.73;;;7.40;99.90;;;;;;5127958;23;20180;-94
2022/01/15 01:07:50;;;;;;;76.30;37.97;;;6.90;99.90;;;;;;5090366;23;20181;-95
2022/01/15 01:23:45;;;;;;;80.53;38.23;;;6.70;99.90;;;;;;5132272;23;20148;-94
2022/01/15 01:26:43;;;;;;;;;;;;;;;;;;;;;
2022/01/15 01:32:24;;;;;;;;;;;;;;;;;;;;;
2022/01/15 01:37:35;;;;;;;80.57;37.23;;;6.20;99.90;;;;;;5155603;23;20191;-94
2022/01/15 01:44:43;;;;;;;77.10;36.60;;;5.70;99.90;;;;;;5134575;23;20168;-95
2022/01/15 01:47:24;;;;;;;75.20;36.10;;;5.80;99.90;;;;;;5120992;23;20247;-94
2022/01/15 01:50:01;;;;;;;82.00;38.70;;;6.00;99.90;;;;;;5145028;23;20174;-94
2022/01/15 01:52:44;;;;;;;83.03;38.17;;;6.20;99.90;;;;;;5127511;23;20236;-94
2022/01/15 01:55:01;;;;;;;;;;;;;;;;;;;;;
2022/01/15 01:57:17;;;;;;;77.50;37.83;;;5.80;99.90;;;;;;5125430;23;20266;-94
2022/01/15 01:59:21;;;;;;;75.97;37.73;;;5.60;99.90;;;;;;5106722;23;20169;-94
2022/01/15 02:01:49;;;;;;;73.33;37.33;;;5.40;99.90;;;;;;5106023;23;20149;-94
2022/01/15 02:03:55;;;;;;;76.67;38.17;;;5.20;99.90;;;;;;5106574;23;20161;-93
2022/01/15 02:06:22;;;;;;;78.77;37.87;;;5.20;99.90;;;;;;5132376;23;20574;-94
2022/01/15 02:08:40;;;;;;;85.53;39.20;;;5.30;99.90;;;;;;5134104;23;20235;-95
2022/01/15 02:10:59;;;;;;;76.87;38.43;;;5.50;99.90;;;;;;5103842;23;20159;-94
2022/01/15 02:13:10;;;;;;;78.43;37.77;;;5.50;99.90;;;;;;5126252;23;20566;-94
2022/01/15 02:15:30;;;;;;;74.63;37.77;;;5.60;99.90;;;;;;5104460;23;20153;-95
2022/01/15 02:17:43;;;;;;;76.17;35.70;;;5.70;99.90;;;;;;5104166;23;20192;-94
2022/01/15 02:21:01;;;;;;;81.10;38.17;;;5.50;99.90;;;;;;5109641;23;20149;-93
2022/01/15 02:23:34;;;;;;;74.87;38.53;;;5.40;99.90;;;;;;5046936;23;20190;-93
2022/01/15 02:26:17;;;;;;;73.70;34.87;;;5.50;99.90;;;;;;5030793;23;20222;-95
2022/01/15 02:28:27;;;;;;;76.17;36.17;;;5.20;99.90;;;;;;5004415;23;20175;-95
2022/01/15 02:30:33;;;;;;;75.10;37.07;;;5.10;99.90;;;;;;5042334;23;20204;-96
2022/01/15 02:32:55;;;;;;;86.27;39.63;;;4.90;99.90;;;;;;5104262;23;20159;-94
2022/01/15 02:37:56;;;;;;;77.43;37.90;;;4.80;99.90;;;;;;5123636;23;20188;-94
2022/01/15 02:40:19;;;;;;;84.37;39.20;;;4.60;99.90;;;;;;5104264;23;20149;-95
2022/01/15 02:42:49;;;;;;;89.60;43.03;;;4.80;99.90;;;;;;5100478;23;20149;-94
2022/01/15 02:45:07;;;;;;;77.70;37.80;;;5.00;99.90;;;;;;5102190;23;20164;-94
2022/01/15 02:49:10;;;;;;;88.37;39.90;;;5.10;99.90;;;;;;5125339;23;20156;-95
2022/01/15 02:51:23;;;;;;;87.73;40.50;;;5.00;99.90;;;;;;5106140;23;20213;-95
2022/01/15 02:53:39;;;;;;;;;;;;;;;;;;;;;
2022/01/15 02:55:57;;;;;;;87.77;42.50;;;4.80;99.90;;;;;;5124860;23;20148;-94
2022/01/15 02:58:37;;;;;;;86.00;41.50;;;5.00;99.90;;;;;;5101640;23;20274;-94
2022/01/15 03:00:51;;;;;;;92.97;42.43;;;5.00;99.90;;;;;;5124332;23;20179;-94
2022/01/15 03:03:05;;;;;;;87.10;40.73;;;5.00;99.90;;;;;;5102794;23;20161;-94
2022/01/15 03:05:13;;;;;;;90.17;42.37;;;5.30;99.90;;;;;;5128508;23;20242;-94
2022/01/15 03:07:17;;;;;;;81.93;38.33;;;5.30;99.90;;;;;;5101222;23;20222;-94
2022/01/15 03:09:35;;;;;;;92.10;41.07;;;5.20;99.90;;;;;;5101029;23;20153;-95
2022/01/15 03:11:44;;;;;;;77.67;39.37;;;5.00;99.90;;;;;;5123965;23;20155;-93
2022/01/15 03:14:08;;;;;;;78.43;37.10;;;4.60;99.90;;;;;;5123056;23;20230;-94
2022/01/15 03:16:26;;;;;;;84.03;39.33;;;4.40;99.90;;;;;;5124503;23;20247;-92
2022/01/15 03:18:45;;;;;;;91.83;41.63;;;4.30;99.90;;;;;;5103561;23;20176;-95
2022/01/15 03:21:01;;;;;;;90.30;41.60;;;4.50;99.90;;;;;;5106512;23;20164;-94
2022/01/15 03:23:16;;;;;;;87.20;41.30;;;4.50;99.90;;;;;;5126021;23;20163;-94
2022/01/15 03:25:25;;;;;;;90.27;43.93;;;4.40;99.90;;;;;;5126409;23;20144;-95
2022/01/15 03:27:44;;;;;;;98.33;45.90;;;4.30;99.90;;;;;;5102827;23;20177;-92
2022/01/15 03:29:56;;;;;;;97.17;44.27;;;4.40;99.90;;;;;;5126424;23;20329;-95
2022/01/15 03:32:11;;;;;;;85.90;41.63;;;4.50;99.90;;;;;;5104014;23;20240;-93
2022/01/15 03:34:25;;;;;;;91.20;44.27;;;4.60;99.90;;;;;;5123561;23;20653;-93
2022/01/15 03:36:26;;;;;;;96.77;43.97;;;4.70;99.90;;;;;;5123711;23;20278;-93
2022/01/15 03:38:36;;;;;;;89.37;43.50;;;4.50;99.90;;;;;;5097246;23;20176;-94
2022/01/15 03:40:59;;;;;;;86.53;40.57;;;4.40;99.90;;;;;;5096305;23;20216;-94
2022/01/15 03:43:12;;;;;;;89.97;43.17;;;4.30;99.90;;;;;;5099679;23;20155;-91
2022/01/15 03:45:23;;;;;;;93.40;42.60;;;4.40;99.90;;;;;;5105227;23;20630;-94
2022/01/15 03:47:27;;;;;;;90.70;42.43;;;4.40;99.90;;;;;;5122904;23;20176;-95
2022/01/15 03:49:30;;;;;;;92.67;45.50;;;4.30;99.90;;;;;;5098720;23;20145;-94
2022/01/15 03:51:46;;;;;;;92.67;44.33;;;4.40;99.90;;;;;;5103897;23;20156;-95
2022/01/15 03:53:55;;;;;;;93.87;45.87;;;4.40;99.90;;;;;;5099983;23;20155;-94
2022/01/15 03:56:11;;;;;;;;;;;;;;;;;;;;;
2022/01/15 03:58:58;;;;;;;97.70;46.33;;;4.60;99.90;;;;;;5126417;23;20229;-94
2022/01/15 04:01:35;;;;;;;97.00;44.17;;;4.90;99.90;;;;;;5101376;23;20163;-95
2022/01/15 04:03:39;;;;;;;96.67;43.97;;;4.80;99.90;;;;;;5098231;23;20151;-93
2022/01/15 04:05:40;;;;;;;84.80;43.50;;;4.70;99.90;;;;;;5049656;23;20190;-94
2022/01/15 04:07:52;;;;;;;95.57;44.87;;;4.60;99.90;;;;;;5074730;23;20173;-95
2022/01/15 04:09:56;;;;;;;94.00;44.50;;;4.70;99.90;;;;;;5099651;23;20159;-94
2022/01/15 04:12:03;;;;;;;92.63;45.40;;;4.60;99.90;;;;;;5078197;23;20219;-95
2022/01/15 04:14:23;;;;;;;91.00;45.10;;;4.50;99.90;;;;;;5076246;23;20153;-95
2022/01/15 04:16:29;;;;;;;94.73;44.80;;;4.50;99.90;;;;;;5074947;23;20255;-93
2022/01/15 04:18:41;;;;;;;100.50;46.57;;;4.40;99.90;;;;;;5098500;23;20259;-95
2022/01/15 04:20:52;;;;;;;96.30;45.20;;;4.40;99.90;;;;;;5077381;23;20153;-93
2022/01/15 04:23:17;;;;;;;89.60;43.00;;;4.30;99.90;;;;;;5076734;23;20149;-95
2022/01/15 04:25:29;;;;;;;91.27;44.70;;;4.30;99.90;;;;;;5100690;23;20211;-95
2022/01/15 04:27:41;;;;;;;84.60;41.33;;;4.20;99.90;;;;;;5072953;23;20200;-94
2022/01/15 04:30:03;;;;;;;82.83;42.20;;;4.30;99.90;;;;;;5074417;23;20217;-94
2022/01/15 04:32:18;;;;;;;87.10;43.53;;;4.30;99.90;;;;;;5097308;23;20174;-94
2022/01/15 04:34:27;;;;;;;83.30;40.73;;;4.30;99.90;;;;;;5123091;23;20155;-95
2022/01/15 04:36:38;;;;;;;90.07;42.10;;;4.20;99.90;;;;;;5101636;23;20196;-95
2022/01/15 04:38:43;;;;;;;92.57;43.53;;;4.20;99.90;;;;;;5080249;23;20244;-94
2022/01/15 04:40:53;;;;;;;91.20;42.60;;;4.20;99.90;;;;;;5076782;23;20157;-92
2022/01/15 04:43:20;;;;;;;92.43;43.23;;;4.10;99.90;;;;;;5077419;23;20149;-94
2022/01/15 04:45:43;;;;;;;;;;;;;;;;;;;;;
2022/01/15 04:47:57;;;;;;;92.80;42.77;;;4.00;99.90;;;;;;5099485;23;20179;-95
2022/01/15 04:49:59;;;;;;;91.07;43.13;;;3.90;99.90;;;;;;5099882;23;20156;-94
2022/01/15 04:52:22;;;;;;;92.53;43.23;;;3.80;99.90;;;;;;5078094;23;20162;-93
2022/01/15 04:54:27;;;;;;;91.30;42.70;;;3.70;99.90;;;;;;5102794;23;20176;-95
2022/01/15 04:56:39;;;;;;;79.43;35.57;;;3.70;99.90;;;;;;5079861;23;20268;-94
2022/01/15 04:59:02;;;;;;;98.57;43.77;;;3.60;99.90;;;;;;5102377;23;20157;-94
2022/01/15 05:01:07;;;;;;;94.80;41.63;;;3.60;99.90;;;;;;5104654;23;20169;-94
2022/01/15 05:03:19;;;;;;;91.97;45.37;;;3.60;99.90;;;;;;5104445;23;20152;-95
2022/01/15 05:05:53;;;;;;;92.87;44.30;;;3.80;99.90;;;;;;5128186;23;20218;-94
2022/01/15 05:08:05;;;;;;;98.23;43.70;;;3.90;99.90;;;;;;5104770;23;20177;-92
2022/01/15 05:10:14;;;;;;;98.63;43.53;;;3.90;99.90;;;;;;5106419;23;20148;-93
2022/01/15 05:12:39;;;;;;;98.33;44.17;;;4.00;99.90;;;;;;5136394;23;20214;-94
2022/01/15 05:15:03;;;;;;;95.90;43.83;;;4.10;99.90;;;;;;5087758;23;20584;-94
2022/01/15 05:17:37;;;;;;;96.03;44.13;;;4.10;99.90;;;;;;5114166;23;20206;-94
2022/01/15 05:19:47;;;;;;;104.53;44.53;;;4.30;99.90;;;;;;5105184;23;20216;-95
2022/01/15 05:22:25;;;;;;;104.20;44.70;;;4.40;99.90;;;;;;5103544;23;20188;-94
2022/01/15 05:25:07;;;;;;;;;;;;;;;;;;;;;
2022/01/15 05:27:24;;;;;;;93.37;42.67;;;4.20;99.90;;;;;;5133934;23;20173;-94
2022/01/15 05:29:29;;;;;;;94.27;43.20;;;4.10;99.90;;;;;;5103196;23;20148;-94
2022/01/15 05:31:30;;;;;;;97.77;41.07;;;3.90;99.90;;;;;;5103439;23;20236;-94
2022/01/15 05:33:37;;;;;;;91.23;40.70;;;3.80;99.90;;;;;;5130647;23;20163;-94
2022/01/15 05:36:12;;;;;;;100.47;41.47;;;3.80;99.90;;;;;;5130753;23;20168;-94
2022/01/15 05:38:13;;;;;;;82.30;31.17;;;3.60;99.90;;;;;;5080503;23;20656;-93
2022/01/15 05:40:17;;;;;;;99.40;43.17;;;3.40;99.90;;;;;;5127397;23;20148;-94
2022/01/15 05:42:27;;;;;;;107.87;43.77;;;3.40;99.90;;;;;;5128432;23;20184;-94
2022/01/15 05:44:41;;;;;;;107.57;42.90;;;3.50;99.90;;;;;;5099347;23;20152;-94
2022/01/15 05:46:50;;;;;;;108.57;40.57;;;3.60;99.90;;;;;;5124752;23;20587;-94
2022/01/15 05:48:53;;;;;;;108.23;43.63;;;3.50;99.90;;;;;;5104802;23;20141;-95
2022/01/15 05:51:17;;;;;;;106.60;43.33;;;3.50;99.90;;;;;;5105122;23;20161;-95
2022/01/15 05:53:27;;;;;;;113.20;43.33;;;3.50;99.90;;;;;;5102870;23;20164;-93
2022/01/15 05:55:45;;;;;;;105.13;41.87;;;3.30;99.90;;;;;;5107189;23;20208;-93
2022/01/15 05:58:32;;;;;;;;;;;;;;;;;;;;;
2022/01/15 06:00:43;;;;;;;111.23;43.73;;;3.40;99.90;;;;;;5126266;23;20168;-93
2022/01/15 06:02:52;;;;;;;111.90;44.23;;;3.40;99.90;;;;;;5102481;23;20149;-94
2022/01/15 06:04:56;;;;;;;106.97;40.63;;;3.50;99.90;;;;;;5100820;23;20155;-95
2022/01/15 06:09:21;;;;;;;107.60;43.23;;;3.70;99.90;;;;;;5126320;23;20148;-95
2022/01/15 06:11:44;;;;;;;120.13;44.43;;;3.80;99.90;;;;;;5129932;23;20152;-94
2022/01/15 06:13:47;;;;;;;114.80;42.73;;;4.00;99.90;;;;;;5102821;23;20145;-96
2022/01/15 06:15:48;;;;;;;114.83;43.07;;;4.20;99.90;;;;;;5102135;23;20152;-95
2022/01/15 06:17:56;;;;;;;123.77;43.73;;;3.90;99.90;;;;;;5108304;23;20189;-93
2022/01/15 06:20:09;;;;;;;121.47;44.90;;;3.70;99.90;;;;;;5106102;23;20293;-94
2022/01/15 06:22:19;;;;;;;133.70;44.37;;;3.70;99.90;;;;;;5132323;23;20202;-95
2022/01/15 06:24:43;;;;;;;123.07;44.07;;;3.80;99.90;;;;;;5132011;23;20235;-94
2022/01/15 06:27:04;;;;;;;;;;;;;;;;;;;;;
2022/01/15 06:29:19;;;;;;;122.23;44.10;;;3.70;99.90;;;;;;5132961;23;20160;-95
2022/01/15 06:31:41;;;;;;;125.20;42.53;;;3.60;99.90;;;;;;5131759;23;20203;-95
2022/01/15 06:33:52;;;;;;;131.07;41.93;;;3.60;99.90;;;;;;5110740;23;20183;-93
2022/01/15 06:36:04;;;;;;;118.03;41.73;;;3.50;99.90;;;;;;5110360;23;20149;-94
2022/01/15 06:38:11;;;;;;;125.37;42.80;;;3.60;99.90;;;;;;5134492;23;20156;-96
2022/01/15 06:40:20;;;;;;;123.20;42.50;;;3.50;99.90;;;;;;5108174;23;20149;-95
2022/01/15 06:42:27;;;;;;;130.03;42.60;;;3.50;99.90;;;;;;5107368;23;20157;-95
2022/01/15 06:44:45;;;;;;;149.57;44.27;;;3.60;99.90;;;;;;5109217;23;20526;-94
2022/01/15 06:47:04;;;;;;;;;;;;;;;;;;;;;
2022/01/15 06:49:06;;;;;;;146.40;45.67;;;3.80;99.90;;;;;;5084779;23;20226;-94
2022/01/15 06:51:10;;;;;;;122.97;44.53;;;3.80;99.90;;;;;;5033118;23;20162;-94
2022/01/15 06:53:21;;;;;;;142.87;44.40;;;3.80;99.90;;;;;;5080975;23;20162;-93
2022/01/15 06:55:27;;;;;;;139.23;40.53;;;3.90;99.90;;;;;;5105824;23;20152;-95
2022/01/15 06:57:41;;;;;;;132.37;42.70;;;3.90;99.90;;;;;;5129210;23;20195;-95
2022/01/15 06:59:56;;;;;;;;;;;;;;;;;;;;;
2022/01/15 07:02:07;;;;;;;119.43;36.10;;;3.70;99.90;;;;;;5130291;23;20160;-94
2022/01/15 07:04:16;;;;;;;123.97;38.47;;;3.50;99.90;;;;;;5081544;23;20177;-93
2022/01/15 07:06:26;;;;;;;95.93;35.37;;;3.40;99.90;;;;;;5103294;23;20149;-93
2022/01/15 07:08:35;;;;;;;113.37;36.83;;;3.20;99.90;;;;;;5105005;23;20177;-94
2022/01/15 07:10:45;;;;;;;164.30;34.90;;;3.20;99.90;;;;;;5105180;23;20155;-95
2022/01/15 07:12:48;;;;;;;145.70;35.57;;;3.20;99.90;;;;;;5102690;23;20156;-94
2022/01/15 07:15:06;;;;;;;178.63;34.70;;;3.10;99.90;;;;;;5128119;23;20567;-94
2022/01/15 07:17:07;;;;;;;142.07;38.20;;;2.90;99.90;;;;;;5078148;23;20197;-94
2022/01/15 07:19:09;;;;;;;127.57;37.10;;;3.10;99.90;;;;;;5125711;23;20555;-95
2022/01/15 07:21:13;;;;;;;116.23;35.83;;;3.00;99.90;;;;;;5130222;23;20148;-95
2022/01/15 07:23:16;;;;;;;141.87;38.17;;;3.10;99.90;;;;;;5104254;23;20691;-93
2022/01/15 07:25:36;;;;;;;113.17;36.47;;;3.20;99.90;;;;;;5107638;23;20267;-93
2022/01/15 07:27:40;;;;;;;143.10;40.00;;;3.20;99.90;;;;;;5107983;23;20181;-93
2022/01/15 07:30:03;;;;;;;143.40;38.83;;;3.20;99.90;;;;;;5132525;23;20227;-95
2022/01/15 07:32:32;;;;;;;115.83;35.77;;;3.20;99.90;;;;;;5087548;23;20154;-95
2022/01/15 07:35:07;;;;;;;;;;;;;;;;;;;;;
2022/01/15 07:37:18;;;;;;;112.53;36.23;;;3.20;99.90;;;;;;5136221;23;20234;-94
2022/01/15 07:39:38;;;;;;;112.10;37.30;;;3.50;99.90;;;;;;5134808;23;20152;-94
2022/01/15 07:42:14;;;;;;;115.53;37.23;;;3.70;99.90;;;;;;5128524;23;20713;-94
2022/01/15 07:44:26;;;;;;;108.83;36.27;;;3.70;99.90;;;;;;5110046;23;20141;-93
2022/01/15 07:46:51;;;;;;;107.07;37.37;;;3.90;99.90;;;;;;5135743;23;20148;-94
2022/01/15 07:49:02;;;;;;;116.13;39.20;;;4.10;99.90;;;;;;5108676;23;20157;-94
2022/01/15 07:51:10;;;;;;;114.50;37.43;;;4.30;99.90;;;;;;5112491;23;20156;-94
2022/01/15 07:53:32;;;;;;;123.43;38.10;;;4.30;99.90;;;;;;5106766;23;20152;-93
2022/01/15 07:58:57;;;;;;;;;;;;;;;;;;;;;
2022/01/15 08:01:28;;;;;;;107.30;35.43;;;4.60;99.90;;;;;;5143143;23;20192;-94
2022/01/15 08:03:48;;;;;;;;;;;;;;;;;;;;;
2022/01/15 08:06:09;;;;;;;116.53;35.07;;;4.50;99.90;;;;;;5136588;23;20163;-93
2022/01/15 08:08:12;;;;;;;124.43;36.47;;;4.40;99.90;;;;;;5134515;23;20230;-93
2022/01/15 08:10:26;;;;;;;103.03;36.03;;;4.40;99.90;;;;;;5084910;23;20156;-94
2022/01/15 08:12:49;;;;;;;121.97;35.00;;;4.30;99.90;;;;;;5158835;23;20183;-94
2022/01/15 08:15:27;;;;;;;107.87;37.90;;;4.20;99.90;;;;;;5133854;23;20156;-94
2022/01/15 08:17:55;;;;;;;112.90;37.13;;;4.10;99.90;;;;;;5108975;23;20285;-95
2022/01/15 08:20:10;;;;;;;96.47;34.40;;;4.00;99.90;;;;;;5121502;23;20154;-94
2022/01/15 08:22:13;;;;;;;88.90;33.57;;;4.20;99.90;;;;;;5111951;23;20161;-94
2022/01/15 08:24:16;;;;;;;87.40;34.43;;;4.10;99.90;;;;;;5132332;23;20209;-93
2022/01/15 08:26:59;;;;;;;88.33;33.60;;;4.20;99.90;;;;;;5111076;23;20236;-95
2022/01/15 08:29:38;;;;;;;84.07;32.27;;;4.10;99.90;;;;;;5132285;23;20160;-94
2022/01/15 08:31:52;;;;;;;75.90;29.03;;;4.00;99.90;;;;;;5107731;23;20176;-94
2022/01/15 08:33:56;;;;;;;79.23;31.13;;;3.60;99.90;;;;;;5132390;23;20148;-95
2022/01/15 08:39:26;;;;;;;;;;;;;;;;;;;;;
2022/01/15 08:42:15;;;;;;;91.87;30.30;;;3.90;99.90;;;;;;5125883;23;20161;-94
2022/01/15 08:44:57;;;;;;;84.43;32.30;;;3.70;99.90;;;;;;5133740;23;20171;-94
2022/01/15 08:47:26;;;;;;;81.63;31.73;;;3.60;99.90;;;;;;5115747;23;20214;-93
2022/01/15 08:50:15;;;;;;;;;;;;;;;;;;;;;
2022/01/15 08:53:20;;;;;;;;;;;;;;;;;;;;;
2022/01/15 08:56:08;;;;;;;76.87;30.43;;;4.00;99.90;;;;;;5131939;23;20156;-93
2022/01/15 08:58:54;;;;;;;82.47;32.53;;;3.70;99.90;;;;;;5113609;23;20210;-94
2022/01/15 09:01:04;;;;;;;85.47;33.67;;;3.50;99.90;;;;;;5132920;23;20164;-94
2022/01/15 09:03:21;;;;;;;77.90;32.93;;;3.40;99.90;;;;;;5109091;23;20137;-94
2022/01/15 09:05:26;;;;;;;80.87;31.30;;;3.60;99.90;;;;;;5111826;23;20185;-93
2022/01/15 09:07:30;;;;;;;70.70;30.50;;;3.90;99.90;;;;;;5133201;23;20192;-94
2022/01/15 09:09:33;;;;;;;66.80;29.87;;;4.10;99.90;;;;;;5104258;23;20663;-93
2022/01/15 09:11:44;;;;;;;71.93;30.00;;;4.00;99.90;;;;;;5109839;23;20269;-94
2022/01/15 09:13:49;;;;;;;71.47;30.70;;;4.00;99.90;;;;;;5113503;23;20159;-94
2022/01/15 09:16:10;;;;;;;69.10;29.20;;;4.20;99.90;;;;;;5134055;23;20156;-94
2022/01/15 09:18:19;;;;;;;69.43;29.43;;;4.20;99.90;;;;;;5133503;23;20232;-94
2022/01/15 09:20:35;;;;;;;67.57;30.27;;;4.20;99.90;;;;;;5109914;23;20165;-94
2022/01/15 09:23:52;;;;;;;71.60;30.53;;;4.40;99.90;;;;;;5132604;23;20156;-92
2022/01/15 09:26:06;;;;;;;69.73;30.53;;;4.70;99.90;;;;;;5119006;23;20152;-94
2022/01/15 09:30:47;;;;;;;65.73;27.77;;;5.00;99.90;;;;;;5134522;23;20160;-94
2022/01/15 09:32:55;;;;;;;76.43;30.50;;;5.10;99.90;;;;;;5109710;23;20156;-93
2022/01/15 09:35:09;;;;;;;65.30;27.93;;;4.80;99.90;;;;;;5134074;23;20156;-94
2022/01/15 09:37:46;;;;;;;63.77;29.73;;;4.60;99.90;;;;;;5090077;23;20552;-93
2022/01/15 09:40:02;;;;;;;58.63;26.13;;;4.80;99.90;;;;;;5113421;23;20187;-92
2022/01/15 09:42:11;;;;;;;58.07;26.30;;;4.90;99.90;;;;;;5109445;23;20175;-93
2022/01/15 09:44:42;;;;;;;65.97;28.33;;;4.80;99.90;;;;;;5134958;23;20176;-94
2022/01/15 09:46:55;;;;;;;57.53;26.63;;;5.00;99.90;;;;;;5106818;23;20499;-94
2022/01/15 09:49:30;;;;;;;54.57;26.37;;;4.90;99.90;;;;;;5111642;23;20152;-94
2022/01/15 09:54:50;;;;;;;60.93;26.80;;;4.70;99.90;;;;;;5134321;23;20152;-94
2022/01/15 09:57:12;;;;;;;71.13;27.13;;;4.20;99.90;;;;;;5137322;23;20216;-94
2022/01/15 09:59:32;;;;;;;55.50;27.13;;;4.10;99.90;;;;;;5111093;23;20205;-94
2022/01/15 10:01:50;;;;;;;51.47;24.60;;;3.90;99.90;;;;;;5136871;23;20164;-93
2022/01/15 10:04:32;;;;;;;58.77;24.43;;;3.80;99.90;;;;;;5140744;23;20167;-93
2022/01/15 10:07:38;;;;;;;;;;;;;;;;;;;;;
2022/01/15 10:10:37;;;;;;;61.47;27.20;;;3.30;99.90;;;;;;5131223;23;20144;-91
2022/01/15 10:13:38;;;;;;;57.40;27.07;;;3.20;99.90;;;;;;5139179;23;20179;-93
2022/01/15 10:16:13;;;;;;;55.50;26.17;;;3.30;99.90;;;;;;5134453;23;20160;-92
2022/01/15 10:18:50;;;;;;;52.60;25.17;;;3.80;99.90;;;;;;5131281;23;20242;-94
2022/01/15 10:21:13;;;;;;;59.33;25.90;;;3.90;99.90;;;;;;5107122;23;20152;-94
2022/01/15 10:24:02;;;;;;;49.07;24.80;;;3.70;99.90;;;;;;5137464;23;20176;-95
2022/01/15 10:26:21;;;;;;;48.80;25.23;;;4.00;99.90;;;;;;5135861;23;20230;-95
2022/01/15 10:29:11;;;;;;;52.53;26.17;;;4.40;99.90;;;;;;5107067;23;20191;-94
2022/01/15 10:31:43;;;;;;;52.43;26.63;;;4.40;99.90;;;;;;5039083;23;20247;-93
2022/01/15 10:34:04;;;;;;;49.33;25.03;;;4.20;99.90;;;;;;5061403;23;20161;-95
2022/01/15 10:36:37;;;;;;;45.40;23.13;;;4.30;99.90;;;;;;5018292;23;20214;-92
2022/01/15 10:38:56;;;;;;;44.27;23.30;;;4.40;99.90;;;;;;5036828;23;20169;-93
2022/01/15 10:41:48;;;;;;;44.97;24.70;;;4.50;99.90;;;;;;5012565;23;20143;-94
2022/01/15 10:44:34;;;;;;;49.07;23.73;;;5.00;99.90;;;;;;5111838;23;20185;-93
2022/01/15 10:46:47;;;;;;;46.90;23.63;;;5.10;99.90;;;;;;5111744;23;20160;-94
2022/01/15 10:48:56;;;;;;;41.57;23.03;;;4.80;99.90;;;;;;5131784;23;20165;-94
2022/01/15 10:50:59;;;;;;;49.17;23.67;;;4.90;99.90;;;;;;5107456;23;20195;-93
2022/01/15 10:53:10;;;;;;;45.70;22.90;;;5.10;99.90;;;;;;5129058;23;20206;-93
2022/01/15 10:55:17;;;;;;;40.77;22.13;;;5.10;99.90;;;;;;5103574;23;20189;-94
2022/01/15 10:57:33;;;;;;;37.07;21.23;;;5.20;99.90;;;;;;5128752;23;20188;-94
2022/01/15 10:59:34;;;;;;;39.37;22.37;;;5.30;99.90;;;;;;5106306;23;20212;-94
2022/01/15 11:01:40;;;;;;;38.73;21.57;;;5.30;99.90;;;;;;5129548;23;20152;-95
2022/01/15 11:03:46;;;;;;;39.20;21.73;;;5.20;99.90;;;;;;5103717;23;20160;-94
2022/01/15 11:05:57;;;;;;;45.17;23.27;;;4.90;99.90;;;;;;5105667;23;20192;-94
2022/01/15 11:08:23;;;;;;;40.17;22.63;;;5.10;99.90;;;;;;5103720;23;20169;-94
2022/01/15 11:10:47;;;;;;;39.53;21.80;;;5.50;99.90;;;;;;5131218;23;20172;-94
2022/01/15 11:12:51;;;;;;;35.27;20.97;;;5.80;99.90;;;;;;5105830;23;20638;-94
2022/01/15 11:15:09;;;;;;;35.07;21.13;;;5.90;99.90;;;;;;5110061;23;20200;-93
2022/01/15 11:17:25;;;;;;;31.80;19.70;;;5.70;99.90;;;;;;5135026;23;20200;-96
2022/01/15 11:19:36;;;;;;;34.93;21.17;;;5.70;99.90;;;;;;5103690;23;20152;-94
2022/01/15 11:21:39;;;;;;;34.67;20.40;;;5.80;99.90;;;;;;5100405;23;20186;-93
2022/01/15 11:23:41;;;;;;;37.27;21.50;;;5.80;99.90;;;;;;5127106;23;20148;-93
2022/01/15 11:25:51;;;;;;;35.47;21.07;;;5.30;99.90;;;;;;5108114;23;20153;-94
2022/01/15 11:28:12;;;;;;;36.90;21.10;;;5.10;99.90;;;;;;5134856;23;20172;-94
2022/01/15 11:30:21;;;;;;;38.50;22.00;;;4.80;99.90;;;;;;5131232;23;20150;-93
2022/01/15 11:32:35;;;;;;;37.27;21.40;;;5.10;99.90;;;;;;5134369;23;20140;-94
2022/01/15 11:35:03;;;;;;;37.90;21.83;;;5.20;99.90;;;;;;5131951;23;20149;-94
2022/01/15 11:37:54;;;;;;;35.10;21.60;;;5.50;99.90;;;;;;5135518;23;20196;-95
2022/01/15 11:40:17;;;;;;;37.67;21.70;;;5.50;99.90;;;;;;5133955;23;20159;-94
2022/01/15 11:42:48;;;;;;;39.77;21.57;;;5.60;99.90;;;;;;5109982;23;20153;-94
2022/01/15 11:45:55;;;;;;;34.33;19.47;;;5.70;99.90;;;;;;5134007;23;20164;-94
2022/01/15 11:48:56;;;;;;;33.30;20.87;;;5.80;99.90;;;;;;5127450;23;20180;-92
2022/01/15 11:51:14;;;;;;;39.60;21.30;;;6.10;99.90;;;;;;5078025;23;20207;-95
2022/01/15 11:53:51;;;;;;;33.53;19.83;;;6.30;99.90;;;;;;5106684;23;20152;-94
2022/01/15 11:56:26;;;;;;;31.83;19.77;;;6.20;99.90;;;;;;5136012;23;20551;-95
2022/01/15 11:58:42;;;;;;;32.30;19.10;;;6.60;99.90;;;;;;5087280;23;20185;-94
2022/01/15 12:01:31;;;;;;;31.53;19.33;;;6.50;99.90;;;;;;5112455;23;20153;-93
2022/01/15 12:03:48;;;;;;;33.30;19.97;;;6.30;99.90;;;;;;5137543;23;20203;-93
2022/01/15 12:06:04;;;;;;;32.63;19.37;;;6.30;99.90;;;;;;5134665;23;20151;-95
2022/01/15 12:08:09;;;;;;;44.83;17.40;;;6.40;99.90;;;;;;5105166;23;20192;-94
2022/01/15 12:10:20;;;;;;;27.07;16.60;;;6.30;99.90;;;;;;5128200;23;20223;-93
2022/01/15 12:14:59;;;;;;;24.90;16.67;;;6.30;99.90;;;;;;5128578;23;20168;-93
2022/01/15 12:17:26;;;;;;;27.57;16.83;;;6.60;99.90;;;;;;5155288;23;20209;-93
2022/01/15 12:19:40;;;;;;;26.02;16.88;;;6.70;99.90;;;;;;5108432;23;20156;-95
2022/01/15 12:21:54;;;;;;;24.93;15.97;;;6.90;99.90;;;;;;5108640;23;20153;-93
2022/01/15 12:24:35;;;;;;;26.47;17.40;;;7.00;99.90;;;;;;5112844;23;20153;-93
2022/01/15 12:26:36;;;;;;;24.10;16.37;;;7.20;99.90;;;;;;5157526;23;20162;-93
2022/01/15 12:28:40;;;;;;;26.07;15.73;;;6.90;99.90;;;;;;5110334;23;20204;-94
2022/01/15 12:30:50;;;;;;;22.75;14.02;;;7.00;99.90;;;;;;5107033;23;20201;-94
2022/01/15 12:33:00;;;;;;;24.30;14.33;;;7.00;99.90;;;;;;5128924;23;20175;-92
2022/01/15 12:35:05;;;;;;;20.17;13.37;;;6.80;99.90;;;;;;5099581;23;20152;-92
2022/01/15 12:37:13;;;;;;;22.58;14.85;;;6.90;99.90;;;;;;5128111;23;20234;-93
2022/01/15 12:39:13;;;;;;;23.30;14.40;;;7.20;99.90;;;;;;5103811;23;20216;-91
2022/01/15 12:41:18;;;;;;;24.88;14.68;;;7.20;99.90;;;;;;5104261;23;20165;-93
2022/01/15 12:43:27;;;;;;;24.50;15.73;;;7.30;99.90;;;;;;5102919;23;20153;-94
2022/01/15 12:45:28;;;;;;;24.63;16.15;;;7.20;99.90;;;;;;5100990;23;20148;-94
2022/01/15 12:47:42;;;;;;;28.15;14.98;;;7.40;99.90;;;;;;5127146;23;20244;-92
2022/01/15 12:49:49;;;;;;;30.75;15.57;;;7.30;99.90;;;;;;5102741;23;20200;-93
2022/01/15 12:52:07;;;;;;;26.17;15.80;;;7.40;99.90;;;;;;5101413;23;20192;-93
2022/01/15 12:54:10;;;;;;;21.37;14.73;;;7.10;99.90;;;;;;5105549;23;20240;-95
2022/01/15 12:56:23;;;;;;;22.67;14.50;;;7.30;99.90;;;;;;5104794;23;20196;-94